Time;durP1;ratioP1;P1;durP2;ratioP2;P2;SDS_P1;SDS_P2;PMS_P1;PMS_P2;Temp;Humidity;BMP_temperature;BMP_pressure;BME280_temperature;BME280_humidity;BME280_pressure;Samples;Min_cycle;Max_cycle;Signal;HPM_P1;HPM_P2
2022/05/03 00:08:04;;;;;;;0.20;0.10;;;15.10;99.90;;;;;;25664027;23;20166;-71
2022/05/03 00:18:09;;;;;;;0.37;0.37;;;15.10;99.90;;;;;;25664983;23;21033;-70
2022/05/03 00:28:15;;;;;;;0.20;0.10;;;15.00;99.90;;;;;;25663821;23;20166;-71
2022/05/03 00:38:18;;;;;;;0.20;0.07;;;14.90;99.90;;;;;;25663469;23;20182;-70
2022/05/03 00:48:33;;;;;;;0.20;0.00;;;14.50;99.90;;;;;;25665534;23;20162;-71
2022/05/03 00:58:50;;;;;;;0.20;0.10;;;14.50;99.90;;;;;;25662297;23;20194;-71
2022/05/03 01:09:04;;;;;;;0.20;0.10;;;14.40;99.90;;;;;;25636170;23;20162;-72
2022/05/03 01:19:28;;;;;;;0.20;0.00;;;14.10;99.90;;;;;;25660472;23;20209;-72
2022/05/03 01:29:34;;;;;;;0.20;0.00;;;14.00;99.90;;;;;;25661396;23;20151;-72
2022/05/03 01:39:44;;;;;;;0.20;0.00;;;13.80;99.90;;;;;;25661246;23;20186;-72
2022/05/03 01:50:20;;;;;;;0.20;0.00;;;13.90;99.90;;;;;;25635744;23;20169;-72
2022/05/03 02:00:24;;;;;;;0.20;0.10;;;13.60;99.90;;;;;;25633630;23;20198;-71
2022/05/03 02:10:46;;;;;;;0.57;0.57;;;13.80;99.90;;;;;;25638082;23;20183;-72
2022/05/03 02:21:07;;;;;;;0.20;0.00;;;13.70;99.90;;;;;;25661372;23;20318;-71
2022/05/03 02:31:15;;;;;;;0.20;0.10;;;13.70;99.90;;;;;;25659979;23;20221;-71
2022/05/03 02:41:20;;;;;;;0.20;0.10;;;13.70;99.90;;;;;;25633159;23;20162;-71
2022/05/03 02:51:30;;;;;;;0.20;0.10;;;13.90;99.90;;;;;;25631992;23;20201;-71
2022/05/03 03:01:49;;;;;;;0.20;0.10;;;14.00;99.90;;;;;;25658759;23;20190;-71
2022/05/03 03:12:02;;;;;;;0.20;0.10;;;14.10;99.90;;;;;;25658880;23;20245;-72
2022/05/03 03:22:12;;;;;;;0.20;0.10;;;14.60;99.90;;;;;;25658918;23;20165;-71
2022/05/03 03:32:18;;;;;;;0.20;0.10;;;15.00;99.90;;;;;;25630624;23;20182;-71
2022/05/03 03:42:22;;;;;;;0.20;0.10;;;15.40;99.90;;;;;;25641618;23;20174;-72
2022/05/03 03:52:28;;;;;;;0.20;0.10;;;15.50;99.90;;;;;;25638317;23;20198;-72
2022/05/03 04:02:32;;;;;;;0.20;0.10;;;15.30;99.90;;;;;;25639028;23;20198;-71
2022/05/03 04:12:38;;;;;;;0.20;0.10;;;15.30;99.90;;;;;;25666685;23;20273;-71
2022/05/03 04:22:42;;;;;;;0.20;0.00;;;15.40;99.90;;;;;;25663285;23;20168;-70
2022/05/03 04:32:47;;;;;;;0.20;0.10;;;15.30;99.90;;;;;;25663928;23;20187;-71
2022/05/03 04:42:51;;;;;;;0.20;0.10;;;15.30;99.90;;;;;;25660965;23;20181;-71
2022/05/03 04:52:57;;;;;;;0.20;0.00;;;15.40;99.90;;;;;;25631346;23;20205;-71
2022/05/03 05:03:01;;;;;;;0.20;0.10;;;15.20;99.90;;;;;;25649072;23;20225;-71
2022/05/03 05:13:06;;;;;;;0.20;0.10;;;15.30;99.90;;;;;;25653942;23;20202;-71
2022/05/03 05:23:12;;;;;;;0.20;0.10;;;15.20;99.90;;;;;;25623574;23;20181;-71
2022/05/03 05:33:25;;;;;;;0.20;0.00;;;15.40;99.90;;;;;;25624094;23;20197;-71
2022/05/03 05:43:28;;;;;;;0.20;0.00;;;15.80;99.90;;;;;;25651289;23;20189;-71
2022/05/03 05:53:34;;;;;;;0.20;0.10;;;16.30;99.90;;;;;;25648272;23;20208;-70
2022/05/03 06:03:40;;;;;;;0.20;0.00;;;16.70;99.90;;;;;;25616840;23;20603;-73
2022/05/03 06:13:45;;;;;;;0.20;0.10;;;16.90;99.90;;;;;;25614392;23;20198;-72
2022/05/03 06:23:49;;;;;;;0.20;0.10;;;17.10;99.90;;;;;;25648799;23;20170;-72
2022/05/03 06:33:54;;;;;;;0.20;0.10;;;17.20;99.90;;;;;;25645817;23;20187;-70
2022/05/03 06:43:58;;;;;;;0.20;0.10;;;17.30;99.90;;;;;;25646416;23;20326;-71
2022/05/03 06:54:03;;;;;;;0.20;0.10;;;17.60;99.90;;;;;;25639172;23;20202;-71
2022/05/03 07:04:07;;;;;;;0.20;0.10;;;17.80;99.90;;;;;;25643710;23;20204;-76
2022/05/03 07:14:12;;;;;;;0.20;0.10;;;18.20;99.90;;;;;;25622879;23;20205;-73
2022/05/03 07:24:16;;;;;;;0.20;0.00;;;18.30;99.90;;;;;;25651820;23;20174;-73
2022/05/03 07:34:21;;;;;;;0.20;0.10;;;18.50;99.90;;;;;;25651846;23;20477;-74
2022/05/03 07:44:26;;;;;;;0.20;0.00;;;18.50;99.90;;;;;;25652197;23;20242;-72
2022/05/03 07:54:32;;;;;;;0.20;0.10;;;18.50;99.90;;;;;;25654136;23;20458;-72
2022/05/03 08:04:35;;;;;;;0.20;0.00;;;17.90;99.90;;;;;;25622524;23;20194;-73
2022/05/03 08:14:41;;;;;;;0.20;0.10;;;17.80;99.90;;;;;;25653278;23;20190;-72
2022/05/03 08:24:45;;;;;;;0.20;0.00;;;17.70;99.90;;;;;;25616919;23;20181;-72
2022/05/03 08:34:50;;;;;;;0.20;0.10;;;17.50;99.90;;;;;;25612406;23;20190;-73
2022/05/03 08:44:56;;;;;;;0.20;0.00;;;17.00;99.90;;;;;;25638013;23;20196;-73
2022/05/03 08:55:02;;;;;;;0.20;0.00;;;16.70;99.90;;;;;;25588963;23;20198;-72
2022/05/03 09:05:06;;;;;;;0.20;0.00;;;16.50;99.90;;;;;;25614383;23;20181;-72
2022/05/03 09:15:12;;;;;;;0.20;0.00;;;16.60;99.90;;;;;;25610054;23;20209;-72
2022/05/03 14:08:55;;;;;;;0.20;0.00;;;22.20;99.90;;;;;;25628434;23;20197;-73
2022/05/03 14:18:59;;;;;;;0.20;0.00;;;23.00;99.90;;;;;;25615563;23;20182;-72
2022/05/03 14:29:07;;;;;;;0.20;0.03;;;23.80;99.90;;;;;;25615153;23;20249;-72
2022/05/03 14:39:11;;;;;;;0.20;0.00;;;25.40;99.90;;;;;;25614751;23;20182;-74
2022/05/03 14:49:37;;;;;;;0.55;0.55;;;24.30;99.90;;;;;;25641361;23;20217;-70
2022/05/03 15:10:10;;;;;;;0.20;0.00;;;22.20;99.90;;;;;;25638129;23;20185;-73
2022/05/03 15:20:16;;;;;;;0.87;0.87;;;21.70;99.90;;;;;;25637585;23;20178;-73
2022/05/03 15:30:22;;;;;;;0.20;0.10;;;23.00;99.90;;;;;;25639794;23;20174;-74
2022/05/03 15:40:26;;;;;;;0.20;0.00;;;23.00;99.90;;;;;;25648062;23;20339;-73
2022/05/03 15:50:31;;;;;;;0.20;0.20;;;21.60;99.90;;;;;;25643629;23;20169;-74
2022/05/03 16:00:36;;;;;;;0.20;0.00;;;20.70;99.90;;;;;;25646782;23;20214;-73
2022/05/03 16:10:42;;;;;;;0.20;0.10;;;20.30;99.90;;;;;;25623713;23;20395;-72
2022/05/03 16:20:46;;;;;;;0.20;0.10;;;19.70;99.90;;;;;;25620418;23;20182;-71
2022/05/03 16:30:53;;;;;;;0.20;0.10;;;19.80;99.90;;;;;;25625132;23;20166;-74
2022/05/03 16:51:19;;;;;;;0.20;0.10;;;19.40;99.90;;;;;;25649493;23;20190;-74
2022/05/03 17:01:23;;;;;;;0.20;0.10;;;19.60;99.90;;;;;;25627991;23;20197;-72
2022/05/03 17:11:29;;;;;;;0.20;0.10;;;20.10;99.90;;;;;;25652908;23;20194;-71
2022/05/03 17:21:35;;;;;;;0.20;0.00;;;20.30;99.90;;;;;;25653877;23;20178;-71
2022/05/03 17:31:41;;;;;;;0.20;0.10;;;19.80;99.90;;;;;;25624380;23;20185;-71
2022/05/03 17:41:50;;;;;;;0.20;0.10;;;19.00;99.90;;;;;;25650585;23;20248;-71
2022/05/03 18:02:17;;;;;;;0.20;0.00;;;18.10;99.90;;;;;;25653414;23;20166;-69
2022/05/03 18:12:22;;;;;;;0.20;0.10;;;17.60;99.90;;;;;;25623546;23;20198;-71
2022/05/03 18:22:26;;;;;;;0.20;0.10;;;17.50;99.90;;;;;;25652230;23;20162;-69
2022/05/03 18:32:32;;;;;;;0.20;0.10;;;17.50;99.90;;;;;;25653072;23;20190;-72
2022/05/03 18:42:35;;;;;;;0.20;0.10;;;17.30;99.90;;;;;;25628572;23;20173;-70
2022/05/03 18:52:41;;;;;;;0.20;0.10;;;17.30;99.90;;;;;;25626616;23;20194;-70
2022/05/03 19:02:46;;;;;;;0.20;0.10;;;17.10;99.90;;;;;;25650329;23;20162;-70
2022/05/03 19:12:52;;;;;;;0.20;0.10;;;17.00;99.90;;;;;;25647232;23;20202;-71
2022/05/03 19:22:56;;;;;;;0.20;0.10;;;16.70;99.90;;;;;;25649327;23;20166;-72
2022/05/03 19:33:02;;;;;;;0.20;0.10;;;16.70;99.90;;;;;;25628267;23;20190;-71
2022/05/03 19:43:07;;;;;;;0.20;0.00;;;16.50;99.90;;;;;;25627064;23;20193;-72
2022/05/03 19:53:15;;;;;;;0.20;0.00;;;16.20;99.90;;;;;;25627531;23;20194;-70
2022/05/03 20:03:21;;;;;;;0.20;0.00;;;15.90;99.90;;;;;;25653919;23;20193;-71
2022/05/03 20:13:26;;;;;;;0.20;0.00;;;15.80;99.90;;;;;;25652854;23;20198;-70
2022/05/03 20:23:32;;;;;;;0.20;0.00;;;15.50;99.90;;;;;;25630612;23;20177;-71
2022/05/03 20:33:40;;;;;;;0.20;0.00;;;15.40;99.90;;;;;;25607794;23;20245;-70
2022/05/03 20:43:44;;;;;;;0.20;0.10;;;15.50;99.90;;;;;;25660843;23;20181;-70
2022/05/03 20:53:49;;;;;;;0.20;0.10;;;15.40;99.90;;;;;;25627708;23;20206;-71
2022/05/03 21:03:53;;;;;;;0.20;0.00;;;15.40;99.90;;;;;;25655844;23;20169;-70
2022/05/03 21:13:59;;;;;;;0.20;0.10;;;15.20;99.90;;;;;;25656749;23;20198;-72
2022/05/03 21:24:04;;;;;;;1.10;1.10;;;15.10;99.90;;;;;;25659286;23;20177;-73
2022/05/03 21:34:09;;;;;;;0.20;0.00;;;14.70;99.90;;;;;;25654985;23;20194;-71
2022/05/03 21:44:12;;;;;;;0.20;0.10;;;14.40;99.90;;;;;;25659117;23;20181;-72
2022/05/03 21:54:18;;;;;;;0.20;0.00;;;14.10;99.90;;;;;;25658596;23;20201;-72
2022/05/03 22:04:22;;;;;;;0.20;0.10;;;14.00;99.90;;;;;;25650539;23;20170;-72
2022/05/03 22:14:28;;;;;;;0.20;0.00;;;14.00;99.90;;;;;;25657965;23;20217;-72
2022/05/03 22:24:37;;;;;;;0.20;0.10;;;14.30;99.90;;;;;;25658475;23;20513;-72
2022/05/03 22:34:42;;;;;;;0.20;0.00;;;14.20;99.90;;;;;;25657135;23;20179;-72
2022/05/03 22:44:46;;;;;;;0.20;0.10;;;14.10;99.90;;;;;;25656831;23;20170;-72
2022/05/03 22:54:51;;;;;;;0.20;0.10;;;13.60;99.90;;;;;;25656734;23;20190;-71
2022/05/03 23:04:54;;;;;;;0.20;0.10;;;13.60;99.90;;;;;;25604436;23;20248;-71
2022/05/03 23:15:00;;;;;;;0.20;0.00;;;13.80;99.90;;;;;;25655722;23;20198;-71
2022/05/03 23:25:04;;;;;;;0.20;0.00;;;13.80;99.90;;;;;;25656071;23;20216;-72
2022/05/03 23:35:11;;;;;;;0.20;0.00;;;13.30;99.90;;;;;;25654451;23;20201;-72
2022/05/03 23:55:38;;;;;;;0.20;0.07;;;13.10;99.90;;;;;;25631252;23;20190;-72
